createdAt,value
2018-04-16T00:02:39.820Z,0
2018-04-16T00:07:39.212Z,0
2018-04-16T00:12:39.523Z,0
2018-04-16T00:17:39.683Z,0
2018-04-16T00:22:39.104Z,0
2018-04-16T00:27:39.347Z,0
2018-04-16T00:32:39.667Z,0
2018-04-16T00:37:39.907Z,0
2018-04-16T00:42:39.261Z,0
2018-04-16T00:47:39.138Z,0
2018-04-16T00:52:39.441Z,0
2018-04-16T00:57:39.701Z,0
2018-04-16T01:02:39.117Z,0
2018-04-16T01:07:39.548Z,0
2018-04-16T01:12:39.857Z,0
2018-04-16T01:17:39.997Z,0
2018-04-16T01:22:39.297Z,0
2018-04-16T01:27:39.479Z,0
2018-04-16T01:32:39.928Z,0
2018-04-16T01:37:39.330Z,0
2018-04-16T01:42:39.718Z,0
2018-04-16T01:47:39.968Z,0
2018-04-16T01:52:39.240Z,0
2018-04-16T01:57:39.402Z,0
2018-04-16T02:02:39.599Z,0
2018-04-16T02:07:39.820Z,0
2018-04-16T02:12:39.330Z,0
2018-04-16T02:17:39.745Z,0
2018-04-16T02:22:39.963Z,0
2018-04-16T02:27:39.185Z,0
2018-04-16T02:32:39.461Z,0
2018-04-16T02:37:39.603Z,0
2018-04-16T02:42:39.974Z,0
2018-04-16T02:47:39.236Z,0
2018-04-16T02:57:40.016Z,0
2018-04-16T03:02:39.364Z,0
2018-04-16T03:07:39.711Z,0
2018-04-16T03:12:39.972Z,0
2018-04-16T03:17:39.180Z,0
2018-04-16T03:22:39.356Z,0
2018-04-16T03:27:39.554Z,0
2018-04-16T03:32:39.955Z,0
2018-04-16T03:37:39.096Z,0
2018-04-16T03:42:39.440Z,0
2018-04-16T03:47:39.761Z,0
2018-04-16T03:52:40.094Z,0
2018-04-16T03:57:39.514Z,0
2018-04-16T04:02:40.061Z,0
2018-04-16T04:07:39.507Z,0
2018-04-16T04:12:39.958Z,0
2018-04-16T04:17:40.173Z,0
2018-04-16T04:22:39.461Z,0
2018-04-16T04:27:39.779Z,0
2018-04-16T04:32:39.760Z,5
2018-04-16T04:37:40.056Z,5
2018-04-16T04:42:39.464Z,7
2018-04-16T04:47:39.760Z,7
2018-04-16T04:52:40.066Z,11.7
2018-04-16T04:57:40.248Z,11.7
2018-04-16T05:02:39.706Z,16
2018-04-16T05:07:40.089Z,16
2018-04-16T05:12:39.313Z,21
2018-04-16T05:17:39.716Z,21
2018-04-16T05:22:39.962Z,31
2018-04-16T05:27:40.174Z,31
2018-04-16T05:32:39.413Z,39.7
2018-04-16T05:37:39.569Z,39.7
2018-04-16T05:42:39.795Z,49
2018-04-16T05:47:40.079Z,49
2018-04-16T05:52:40.308Z,60
2018-04-16T05:57:39.527Z,60
2018-04-16T06:02:40.035Z,68.7
2018-04-16T06:07:39.304Z,68.7
2018-04-16T06:12:39.575Z,82.3
2018-04-16T06:17:39.888Z,82.3
2018-04-16T06:22:40.125Z,96.8
2018-04-16T06:27:40.300Z,96.8
2018-04-16T06:32:39.798Z,121.2
2018-04-16T06:37:40.080Z,121.2
2018-04-16T06:42:40.277Z,132
2018-04-16T06:47:39.763Z,132
2018-04-16T06:52:40.231Z,139.7
2018-04-16T06:57:39.435Z,139.7
2018-04-16T07:02:39.793Z,151.5
2018-04-16T07:07:40.208Z,151.5
2018-04-16T07:12:40.337Z,144
2018-04-16T07:17:39.534Z,144
2018-04-16T07:22:39.940Z,168.5
2018-04-16T07:27:40.230Z,168.5
2018-04-16T07:32:39.544Z,192.2
2018-04-16T07:37:39.624Z,192.2
2018-04-16T07:42:40.054Z,231.5
2018-04-16T07:47:40.419Z,231.5
2018-04-16T07:52:39.613Z,196.2
2018-04-16T07:57:39.891Z,196.2
2018-04-16T08:02:40.242Z,188.2
2018-04-16T08:07:39.695Z,188.2
2018-04-16T08:12:40.073Z,205.2
2018-04-16T08:17:40.428Z,205.2
2018-04-16T08:22:39.629Z,393
2018-04-16T08:27:39.938Z,393
2018-04-16T08:32:40.268Z,454.3
2018-04-16T08:37:40.528Z,454.3
2018-04-16T08:42:39.789Z,516
2018-04-16T08:47:39.961Z,516
2018-04-16T08:52:40.303Z,383.5
2018-04-16T08:57:40.666Z,383.5
2018-04-16T09:02:40.080Z,358.2
2018-04-16T09:07:40.396Z,358.2
2018-04-16T09:12:39.759Z,435.3
2018-04-16T09:17:40.067Z,435.3
2018-04-16T09:22:40.395Z,382.2
2018-04-16T09:27:39.598Z,382.2
2018-04-16T09:32:40.137Z,406.5
2018-04-16T09:37:40.653Z,406.5
2018-04-16T09:42:39.862Z,395.2
2018-04-16T09:47:40.085Z,395.2
2018-04-16T09:52:40.437Z,418.8
2018-04-16T09:57:39.704Z,418.8
2018-04-16T10:02:40.393Z,346.5
2018-04-16T10:07:39.639Z,346.5
2018-04-16T10:12:39.959Z,367
2018-04-16T10:17:40.161Z,367
2018-04-16T10:22:40.358Z,487.8
2018-04-16T10:27:39.640Z,487.8
2018-04-16T10:32:40.064Z,452.3
2018-04-16T10:37:40.354Z,452.3
2018-04-16T10:42:39.953Z,477.2
2018-04-16T10:47:40.128Z,477.2
2018-04-16T10:52:40.628Z,385
2018-04-16T10:57:39.911Z,385
2018-04-16T11:02:40.209Z,368
2018-04-16T11:07:40.560Z,368
2018-04-16T11:12:39.754Z,407.8
2018-04-16T11:17:40.020Z,407.8
2018-04-16T11:22:40.331Z,397.8
2018-04-16T11:27:40.583Z,397.8
2018-04-16T11:32:39.852Z,433
2018-04-16T11:37:40.144Z,433
2018-04-16T11:42:40.363Z,523.3
2018-04-16T11:47:40.685Z,523.3
2018-04-16T11:52:40.385Z,489.2
2018-04-16T11:57:40.787Z,489.2
2018-04-16T12:02:40.129Z,477.2
2018-04-16T12:07:40.583Z,477.2
2018-04-16T12:12:39.848Z,355.5
2018-04-16T12:17:40.223Z,355.5
2018-04-16T12:22:40.557Z,515.2
2018-04-16T12:27:40.842Z,515.2
2018-04-16T12:32:40.077Z,334
2018-04-16T12:37:40.429Z,334
2018-04-16T12:42:40.711Z,711.3
2018-04-16T12:47:40.168Z,711.3
2018-04-16T12:52:40.368Z,599.8
2018-04-16T12:57:40.671Z,599.8
2018-04-16T13:02:39.945Z,513
2018-04-16T13:07:40.337Z,513
2018-04-16T13:12:40.602Z,548
2018-04-16T13:17:39.986Z,548
2018-04-16T13:22:40.263Z,524.7
2018-04-16T13:27:40.604Z,524.7
2018-04-16T13:32:40.905Z,565
2018-04-16T13:37:40.502Z,565
2018-04-16T13:42:40.726Z,620
2018-04-16T13:47:39.920Z,620
2018-04-16T13:52:40.918Z,373
2018-04-16T13:57:40.194Z,373
2018-04-16T14:02:40.512Z,589.3
2018-04-16T14:07:40.669Z,589.3
2018-04-16T14:12:41.063Z,337.7
2018-04-16T14:17:40.384Z,337.7
2018-04-16T14:22:40.613Z,101.5
2018-04-16T14:27:40.913Z,101.5
2018-04-16T14:32:40.135Z,33.2
2018-04-16T14:37:40.338Z,33.2
2018-04-16T14:42:40.487Z,18.8
2018-04-16T14:47:40.716Z,18.8
2018-04-16T14:52:40.863Z,16.7
2018-04-16T14:57:40.257Z,16.7
2018-04-16T15:02:40.496Z,11
2018-04-16T15:07:40.707Z,11
2018-04-16T15:12:40.041Z,9
2018-04-16T15:17:40.283Z,9
2018-04-16T15:22:40.515Z,21
2018-04-16T15:27:40.704Z,21
2018-04-16T15:32:41.072Z,25
2018-04-16T15:37:40.310Z,25
2018-04-16T15:42:40.755Z,28.7
2018-04-16T15:47:40.944Z,28.7
2018-04-16T15:52:40.062Z,30
2018-04-16T15:57:40.375Z,30
2018-04-16T16:02:40.951Z,15.3
2018-04-16T16:07:40.319Z,15.3
2018-04-16T16:12:40.659Z,10.3
2018-04-16T16:17:40.914Z,10.3
2018-04-16T16:22:40.262Z,25.3
2018-04-16T16:27:40.483Z,25.3
2018-04-16T16:32:40.742Z,25
2018-04-16T16:37:40.924Z,25
2018-04-16T16:42:40.145Z,23
2018-04-16T16:47:40.519Z,23
2018-04-16T16:52:40.691Z,18.3
2018-04-16T16:57:40.910Z,18.3
2018-04-16T17:02:40.219Z,17.3
2018-04-16T17:07:40.470Z,17.3
2018-04-16T17:12:40.650Z,12
2018-04-16T17:17:40.860Z,12
2018-04-16T17:22:40.160Z,12
2018-04-16T17:27:40.354Z,12
2018-04-16T17:32:40.777Z,14
2018-04-16T17:37:40.989Z,14
2018-04-16T17:42:40.189Z,12
2018-04-16T17:47:40.395Z,12
2018-04-16T17:52:40.614Z,11
2018-04-16T17:57:40.954Z,11
2018-04-16T18:02:40.245Z,11
2018-04-16T18:07:40.407Z,11
2018-04-16T18:12:40.650Z,7
2018-04-16T18:17:40.886Z,7
2018-04-16T18:22:41.140Z,0
2018-04-16T18:27:40.461Z,0
2018-04-16T18:32:40.639Z,0
2018-04-16T18:37:40.830Z,0
2018-04-16T18:42:41.072Z,0
2018-04-16T18:47:40.373Z,0
2018-04-16T18:52:40.624Z,0
2018-04-16T18:57:40.839Z,0
2018-04-16T19:02:41.163Z,0
2018-04-16T19:07:40.405Z,0
2018-04-16T19:12:40.753Z,0
2018-04-16T19:17:41.066Z,0
2018-04-16T19:22:40.300Z,0
2018-04-16T19:27:40.530Z,0
2018-04-16T19:32:40.885Z,0
2018-04-16T19:37:41.106Z,0
2018-04-16T19:42:40.397Z,0
2018-04-16T19:47:40.781Z,0
2018-04-16T19:52:41.105Z,0
2018-04-16T19:57:41.252Z,0
2018-04-16T20:02:40.553Z,0
2018-04-16T20:07:40.753Z,0
2018-04-16T20:12:41.061Z,0
2018-04-16T20:17:41.201Z,0
2018-04-16T20:22:40.454Z,0
2018-04-16T20:27:40.771Z,0
2018-04-16T20:32:41.158Z,0
2018-04-16T20:37:40.416Z,0
2018-04-16T20:42:40.592Z,0
2018-04-16T20:47:40.877Z,0
2018-04-16T20:52:41.160Z,0
2018-04-16T20:57:40.661Z,0
2018-04-16T21:02:40.976Z,0
2018-04-16T21:07:41.151Z,0
2018-04-16T21:12:40.492Z,0
2018-04-16T21:17:40.812Z,0
2018-04-16T21:22:41.092Z,0
2018-04-16T21:27:41.274Z,0
2018-04-16T21:32:40.556Z,0
2018-04-16T21:37:40.817Z,0
2018-04-16T21:42:41.192Z,0
2018-04-16T21:47:41.441Z,0
2018-04-16T21:52:40.630Z,0
2018-04-16T21:57:40.780Z,0
2018-04-16T22:02:41.324Z,0
2018-04-16T22:07:40.650Z,0
2018-04-16T22:12:40.949Z,0
2018-04-16T22:17:41.201Z,0
2018-04-16T22:22:40.520Z,0
2018-04-16T22:27:40.620Z,0
2018-04-16T22:32:40.848Z,0
2018-04-16T22:37:40.993Z,0
2018-04-16T22:42:41.249Z,0
2018-04-16T22:47:40.564Z,0
2018-04-16T22:52:40.707Z,0
2018-04-16T22:57:40.808Z,0
2018-04-16T23:02:41.362Z,0
2018-04-16T23:07:40.738Z,0
2018-04-16T23:12:41.033Z,0
2018-04-16T23:17:41.483Z,0
2018-04-16T23:22:40.587Z,0
2018-04-16T23:27:41.088Z,0
2018-04-16T23:32:41.266Z,0
2018-04-16T23:37:41.485Z,0
2018-04-16T23:42:40.585Z,0
2018-04-16T23:47:40.654Z,0
2018-04-16T23:52:40.781Z,0
2018-04-16T23:57:40.906Z,0
